Terminal Aerodrome Forecast
Issued by NWS Binghamton, NY

Home | Current Version | Previous Version | Text Only | Print | Product List | Glossary On
Versions: 1 2 3 4 5 6 7 8 9 10 11 12 13 14 15 16 17 18 19 20 21
315
FTUS41 KBGM 100644 AAA
TAFBGM
TAF AMD
KBGM 100644Z 1007/1106 19004KT P6SM OVC015
      TEMPO 1007/1008 1/2SM FG BKN002
     FM100800 20004KT P6SM OVC040
     FM101500 25010G18KT 2SM -SN OVC012=

USA.gov is the U.S. government's official web portal to all federal, state and local government web resources and services.